sensor_id;sensor_type;location;lat;lon;timestamp;P1;durP1;ratioP1;P2;durP2;ratioP2
68947;SDS011;55996;49.546;7.400;2022-09-01T00:01:50;6.30;;;5.70;;
68947;SDS011;55996;49.546;7.400;2022-09-01T00:04:17;10.57;;;5.60;;
68947;SDS011;55996;49.546;7.400;2022-09-01T00:06:45;5.87;;;5.37;;
68947;SDS011;55996;49.546;7.400;2022-09-01T00:09:12;6.60;;;6.00;;
68947;SDS011;55996;49.546;7.400;2022-09-01T00:11:41;6.23;;;5.67;;
68947;SDS011;55996;49.546;7.400;2022-09-01T00:14:08;6.00;;;5.50;;
68947;SDS011;55996;49.546;7.400;2022-09-01T00:16:34;6.10;;;5.50;;
68947;SDS011;55996;49.546;7.400;2022-09-01T00:19:00;6.13;;;5.63;;
68947;SDS011;55996;49.546;7.400;2022-09-01T00:21:28;7.07;;;5.37;;
68947;SDS011;55996;49.546;7.400;2022-09-01T00:23:55;6.63;;;5.73;;
68947;SDS011;55996;49.546;7.400;2022-09-01T00:26:21;6.57;;;5.97;;
68947;SDS011;55996;49.546;7.400;2022-09-01T00:28:47;5.80;;;5.30;;
68947;SDS011;55996;49.546;7.400;2022-09-01T00:31:13;6.50;;;5.90;;
68947;SDS011;55996;49.546;7.400;2022-09-01T00:33:44;6.67;;;5.47;;
68947;SDS011;55996;49.546;7.400;2022-09-01T00:36:10;8.53;;;6.00;;
68947;SDS011;55996;49.546;7.400;2022-09-01T00:38:36;6.17;;;5.27;;
68947;SDS011;55996;49.546;7.400;2022-09-01T00:41:03;6.27;;;5.77;;
68947;SDS011;55996;49.546;7.400;2022-09-01T00:43:43;7.60;;;5.60;;
68947;SDS011;55996;49.546;7.400;2022-09-01T00:46:10;6.90;;;5.23;;
68947;SDS011;55996;49.546;7.400;2022-09-01T00:48:38;6.53;;;5.90;;
68947;SDS011;55996;49.546;7.400;2022-09-01T00:51:03;6.13;;;5.53;;
68947;SDS011;55996;49.546;7.400;2022-09-01T00:53:31;6.57;;;5.97;;
68947;SDS011;55996;49.546;7.400;2022-09-01T00:55:59;6.77;;;5.43;;
68947;SDS011;55996;49.546;7.400;2022-09-01T00:58:25;9.53;;;6.13;;
68947;SDS011;55996;49.546;7.400;2022-09-01T01:00:52;7.20;;;5.37;;
68947;SDS011;55996;49.546;7.400;2022-09-01T01:03:18;6.03;;;5.30;;
68947;SDS011;55996;49.546;7.400;2022-09-01T01:05:45;6.33;;;5.73;;
68947;SDS011;55996;49.546;7.400;2022-09-01T01:08:19;6.53;;;5.87;;
68947;SDS011;55996;49.546;7.400;2022-09-01T01:10:51;6.77;;;5.60;;
68947;SDS011;55996;49.546;7.400;2022-09-01T01:13:17;6.30;;;5.80;;
68947;SDS011;55996;49.546;7.400;2022-09-01T01:15:45;6.30;;;5.73;;
68947;SDS011;55996;49.546;7.400;2022-09-01T01:18:11;6.47;;;5.60;;
68947;SDS011;55996;49.546;7.400;2022-09-01T01:20:40;6.30;;;5.70;;
68947;SDS011;55996;49.546;7.400;2022-09-01T01:26:26;5.70;;;5.20;;
68947;SDS011;55996;49.546;7.400;2022-09-01T01:28:52;6.17;;;5.67;;
68947;SDS011;55996;49.546;7.400;2022-09-01T01:31:19;5.50;;;5.00;;
68947;SDS011;55996;49.546;7.400;2022-09-01T01:33:48;6.10;;;5.50;;
68947;SDS011;55996;49.546;7.400;2022-09-01T01:36:17;5.90;;;5.30;;
68947;SDS011;55996;49.546;7.400;2022-09-01T01:38:51;6.20;;;5.60;;
68947;SDS011;55996;49.546;7.400;2022-09-01T01:41:19;6.10;;;5.50;;
68947;SDS011;55996;49.546;7.400;2022-09-01T01:43:46;6.23;;;5.73;;
68947;SDS011;55996;49.546;7.400;2022-09-01T01:46:12;8.40;;;6.00;;
68947;SDS011;55996;49.546;7.400;2022-09-01T01:48:43;5.83;;;5.23;;
68947;SDS011;55996;49.546;7.400;2022-09-01T01:51:09;5.97;;;5.37;;
68947;SDS011;55996;49.546;7.400;2022-09-01T01:53:36;5.63;;;5.13;;
68947;SDS011;55996;49.546;7.400;2022-09-01T01:56:02;5.80;;;5.30;;
68947;SDS011;55996;49.546;7.400;2022-09-01T01:58:28;5.77;;;5.23;;
68947;SDS011;55996;49.546;7.400;2022-09-01T02:00:54;5.90;;;5.40;;
68947;SDS011;55996;49.546;7.400;2022-09-01T02:03:21;5.67;;;5.07;;
68947;SDS011;55996;49.546;7.400;2022-09-01T02:05:50;5.13;;;4.73;;
68947;SDS011;55996;49.546;7.400;2022-09-01T02:08:17;5.73;;;4.80;;
68947;SDS011;55996;49.546;7.400;2022-09-01T02:10:45;5.63;;;4.97;;
68947;SDS011;55996;49.546;7.400;2022-09-01T02:13:14;5.40;;;4.90;;
68947;SDS011;55996;49.546;7.400;2022-09-01T02:15:46;5.03;;;4.63;;
68947;SDS011;55996;49.546;7.400;2022-09-01T02:18:15;4.63;;;4.30;;
68947;SDS011;55996;49.546;7.400;2022-09-01T02:20:48;8.43;;;4.70;;
68947;SDS011;55996;49.546;7.400;2022-09-01T02:23:15;4.93;;;4.50;;
68947;SDS011;55996;49.546;7.400;2022-09-01T02:25:44;4.87;;;4.20;;
68947;SDS011;55996;49.546;7.400;2022-09-01T02:28:11;4.50;;;4.10;;
68947;SDS011;55996;49.546;7.400;2022-09-01T02:30:43;5.10;;;4.50;;
68947;SDS011;55996;49.546;7.400;2022-09-01T02:33:11;5.00;;;4.60;;
68947;SDS011;55996;49.546;7.400;2022-09-01T02:35:53;7.00;;;4.70;;
68947;SDS011;55996;49.546;7.400;2022-09-01T02:38:21;5.00;;;4.60;;
68947;SDS011;55996;49.546;7.400;2022-09-01T02:40:50;4.80;;;4.23;;
68947;SDS011;55996;49.546;7.400;2022-09-01T02:43:17;5.53;;;4.63;;
68947;SDS011;55996;49.546;7.400;2022-09-01T02:45:45;4.83;;;4.43;;
68947;SDS011;55996;49.546;7.400;2022-09-01T02:48:19;5.07;;;4.60;;
68947;SDS011;55996;49.546;7.400;2022-09-01T02:50:48;5.70;;;4.40;;
68947;SDS011;55996;49.546;7.400;2022-09-01T02:53:14;5.27;;;4.63;;
68947;SDS011;55996;49.546;7.400;2022-09-01T02:55:40;5.20;;;4.80;;
68947;SDS011;55996;49.546;7.400;2022-09-01T02:58:07;4.70;;;4.30;;
68947;SDS011;55996;49.546;7.400;2022-09-01T03:00:41;6.30;;;4.30;;
68947;SDS011;55996;49.546;7.400;2022-09-01T03:03:07;6.03;;;4.57;;
68947;SDS011;55996;49.546;7.400;2022-09-01T03:05:33;5.63;;;4.53;;
68947;SDS011;55996;49.546;7.400;2022-09-01T03:08:07;4.43;;;4.03;;
68947;SDS011;55996;49.546;7.400;2022-09-01T03:10:35;5.27;;;4.87;;
68947;SDS011;55996;49.546;7.400;2022-09-01T03:13:10;4.60;;;4.30;;
68947;SDS011;55996;49.546;7.400;2022-09-01T03:15:38;5.00;;;4.50;;
68947;SDS011;55996;49.546;7.400;2022-09-01T03:18:04;5.30;;;4.80;;
68947;SDS011;55996;49.546;7.400;2022-09-01T03:20:31;5.47;;;4.97;;
68947;SDS011;55996;49.546;7.400;2022-09-01T03:22:59;5.07;;;4.60;;
68947;SDS011;55996;49.546;7.400;2022-09-01T03:25:26;5.03;;;4.63;;
68947;SDS011;55996;49.546;7.400;2022-09-01T03:27:54;5.07;;;4.67;;
68947;SDS011;55996;49.546;7.400;2022-09-01T03:30:21;6.63;;;4.50;;
68947;SDS011;55996;49.546;7.400;2022-09-01T03:32:47;4.90;;;4.17;;
68947;SDS011;55996;49.546;7.400;2022-09-01T03:35:12;4.87;;;4.47;;
68947;SDS011;55996;49.546;7.400;2022-09-01T03:37:38;4.80;;;4.40;;
68947;SDS011;55996;49.546;7.400;2022-09-01T03:40:08;5.10;;;4.03;;
68947;SDS011;55996;49.546;7.400;2022-09-01T03:42:34;5.80;;;4.47;;
68947;SDS011;55996;49.546;7.400;2022-09-01T03:45:01;6.47;;;4.50;;
68947;SDS011;55996;49.546;7.400;2022-09-01T03:47:36;5.23;;;4.60;;
68947;SDS011;55996;49.546;7.400;2022-09-01T03:50:07;4.60;;;4.20;;
68947;SDS011;55996;49.546;7.400;2022-09-01T03:52:50;4.83;;;4.07;;
68947;SDS011;55996;49.546;7.400;2022-09-01T03:55:23;5.37;;;4.60;;
68947;SDS011;55996;49.546;7.400;2022-09-01T03:57:59;4.40;;;3.57;;
68947;SDS011;55996;49.546;7.400;2022-09-01T04:00:31;4.60;;;4.20;;
68947;SDS011;55996;49.546;7.400;2022-09-01T04:03:02;4.00;;;3.70;;
68947;SDS011;55996;49.546;7.400;2022-09-01T04:05:29;6.33;;;3.83;;
68947;SDS011;55996;49.546;7.400;2022-09-01T04:08:00;4.30;;;3.90;;
68947;SDS011;55996;49.546;7.400;2022-09-01T04:10:32;5.17;;;4.10;;
68947;SDS011;55996;49.546;7.400;2022-09-01T04:12:59;4.53;;;3.80;;
68947;SDS011;55996;49.546;7.400;2022-09-01T04:15:26;4.60;;;4.20;;
68947;SDS011;55996;49.546;7.400;2022-09-01T04:17:52;4.80;;;4.33;;
68947;SDS011;55996;49.546;7.400;2022-09-01T04:20:38;5.27;;;4.00;;
68947;SDS011;55996;49.546;7.400;2022-09-01T04:23:21;4.47;;;3.77;;
68947;SDS011;55996;49.546;7.400;2022-09-01T04:26:00;3.90;;;3.60;;
68947;SDS011;55996;49.546;7.400;2022-09-01T04:28:34;4.60;;;4.20;;
68947;SDS011;55996;49.546;7.400;2022-09-01T04:31:04;4.57;;;4.17;;
68947;SDS011;55996;49.546;7.400;2022-09-01T04:33:41;4.73;;;4.00;;
68947;SDS011;55996;49.546;7.400;2022-09-01T04:36:21;4.13;;;3.80;;
68947;SDS011;55996;49.546;7.400;2022-09-01T04:38:53;4.30;;;4.00;;
68947;SDS011;55996;49.546;7.400;2022-09-01T04:41:22;5.57;;;3.80;;
68947;SDS011;55996;49.546;7.400;2022-09-01T04:43:50;4.60;;;3.53;;
68947;SDS011;55996;49.546;7.400;2022-09-01T04:46:16;8.60;;;3.67;;
68947;SDS011;55996;49.546;7.400;2022-09-01T04:48:45;4.23;;;3.73;;
68947;SDS011;55996;49.546;7.400;2022-09-01T04:51:11;4.30;;;3.50;;
68947;SDS011;55996;49.546;7.400;2022-09-01T04:53:39;3.70;;;3.40;;
68947;SDS011;55996;49.546;7.400;2022-09-01T04:56:07;5.53;;;3.30;;
68947;SDS011;55996;49.546;7.400;2022-09-01T04:58:34;5.47;;;3.70;;
68947;SDS011;55996;49.546;7.400;2022-09-01T05:01:01;4.37;;;3.73;;
68947;SDS011;55996;49.546;7.400;2022-09-01T05:03:37;4.10;;;3.80;;
68947;SDS011;55996;49.546;7.400;2022-09-01T05:06:03;4.60;;;3.80;;
68947;SDS011;55996;49.546;7.400;2022-09-01T05:08:28;3.73;;;3.37;;
68947;SDS011;55996;49.546;7.400;2022-09-01T05:10:55;3.70;;;3.40;;
68947;SDS011;55996;49.546;7.400;2022-09-01T05:13:21;6.00;;;3.70;;
68947;SDS011;55996;49.546;7.400;2022-09-01T05:15:57;6.90;;;3.67;;
68947;SDS011;55996;49.546;7.400;2022-09-01T05:18:26;4.33;;;3.63;;
68947;SDS011;55996;49.546;7.400;2022-09-01T05:20:52;5.30;;;3.67;;
68947;SDS011;55996;49.546;7.400;2022-09-01T05:23:18;4.20;;;3.90;;
68947;SDS011;55996;49.546;7.400;2022-09-01T05:25:50;3.93;;;3.57;;
68947;SDS011;55996;49.546;7.400;2022-09-01T05:28:18;4.20;;;3.80;;
68947;SDS011;55996;49.546;7.400;2022-09-01T05:30:48;4.23;;;3.77;;
68947;SDS011;55996;49.546;7.400;2022-09-01T05:33:14;4.20;;;3.80;;
68947;SDS011;55996;49.546;7.400;2022-09-01T05:35:51;3.70;;;3.40;;
68947;SDS011;55996;49.546;7.400;2022-09-01T05:38:19;3.90;;;3.60;;
68947;SDS011;55996;49.546;7.400;2022-09-01T05:40:45;4.23;;;3.87;;
68947;SDS011;55996;49.546;7.400;2022-09-01T05:43:21;3.90;;;3.60;;
68947;SDS011;55996;49.546;7.400;2022-09-01T05:45:51;3.67;;;3.33;;
68947;SDS011;55996;49.546;7.400;2022-09-01T05:48:18;4.00;;;3.63;;
68947;SDS011;55996;49.546;7.400;2022-09-01T05:50:46;3.83;;;3.43;;
68947;SDS011;55996;49.546;7.400;2022-09-01T05:53:13;4.73;;;3.23;;
68947;SDS011;55996;49.546;7.400;2022-09-01T05:55:45;3.57;;;3.20;;
68947;SDS011;55996;49.546;7.400;2022-09-01T05:58:13;3.30;;;3.00;;
68947;SDS011;55996;49.546;7.400;2022-09-01T06:00:44;4.03;;;3.07;;
68947;SDS011;55996;49.546;7.400;2022-09-01T06:03:14;3.23;;;2.90;;
68947;SDS011;55996;49.546;7.400;2022-09-01T06:05:41;3.03;;;2.40;;
68947;SDS011;55996;49.546;7.400;2022-09-01T06:08:09;3.67;;;2.40;;
68947;SDS011;55996;49.546;7.400;2022-09-01T06:10:38;3.20;;;2.40;;
68947;SDS011;55996;49.546;7.400;2022-09-01T06:13:04;2.60;;;2.40;;
68947;SDS011;55996;49.546;7.400;2022-09-01T06:15:31;3.20;;;2.57;;
68947;SDS011;55996;49.546;7.400;2022-09-01T06:17:57;3.73;;;2.30;;
68947;SDS011;55996;49.546;7.400;2022-09-01T06:20:24;5.87;;;2.63;;
68947;SDS011;55996;49.546;7.400;2022-09-01T06:22:50;3.13;;;2.60;;
68947;SDS011;55996;49.546;7.400;2022-09-01T06:25:19;2.57;;;2.30;;
68947;SDS011;55996;49.546;7.400;2022-09-01T06:27:45;3.03;;;2.70;;
68947;SDS011;55996;49.546;7.400;2022-09-01T06:30:12;4.13;;;2.37;;
68947;SDS011;55996;49.546;7.400;2022-09-01T06:32:42;3.17;;;2.40;;
68947;SDS011;55996;49.546;7.400;2022-09-01T06:35:13;3.67;;;2.50;;
68947;SDS011;55996;49.546;7.400;2022-09-01T06:37:42;4.23;;;2.33;;
68947;SDS011;55996;49.546;7.400;2022-09-01T06:40:10;3.30;;;2.53;;
68947;SDS011;55996;49.546;7.400;2022-09-01T06:42:45;3.77;;;2.60;;
68947;SDS011;55996;49.546;7.400;2022-09-01T06:45:15;2.73;;;2.43;;
68947;SDS011;55996;49.546;7.400;2022-09-01T06:47:42;3.20;;;2.60;;
68947;SDS011;55996;49.546;7.400;2022-09-01T06:50:09;4.57;;;2.20;;
68947;SDS011;55996;49.546;7.400;2022-09-01T06:52:42;7.50;;;2.60;;
68947;SDS011;55996;49.546;7.400;2022-09-01T06:55:11;3.30;;;2.70;;
68947;SDS011;55996;49.546;7.400;2022-09-01T06:57:40;4.30;;;2.30;;
68947;SDS011;55996;49.546;7.400;2022-09-01T07:00:13;2.47;;;2.27;;
68947;SDS011;55996;49.546;7.400;2022-09-01T07:02:44;2.50;;;2.30;;
68947;SDS011;55996;49.546;7.400;2022-09-01T07:05:11;5.57;;;2.80;;
68947;SDS011;55996;49.546;7.400;2022-09-01T07:07:41;3.90;;;2.63;;
68947;SDS011;55996;49.546;7.400;2022-09-01T07:10:10;2.97;;;2.40;;
68947;SDS011;55996;49.546;7.400;2022-09-01T07:12:38;5.10;;;2.57;;
68947;SDS011;55996;49.546;7.400;2022-09-01T07:15:10;2.97;;;2.50;;
68947;SDS011;55996;49.546;7.400;2022-09-01T07:17:39;3.37;;;2.60;;
68947;SDS011;55996;49.546;7.400;2022-09-01T07:20:06;3.30;;;2.53;;
68947;SDS011;55996;49.546;7.400;2022-09-01T07:22:33;2.90;;;2.40;;
68947;SDS011;55996;49.546;7.400;2022-09-01T07:24:58;2.73;;;2.53;;
68947;SDS011;55996;49.546;7.400;2022-09-01T07:27:24;4.03;;;2.80;;
68947;SDS011;55996;49.546;7.400;2022-09-01T07:29:51;2.80;;;2.50;;
68947;SDS011;55996;49.546;7.400;2022-09-01T07:32:19;2.53;;;2.33;;
68947;SDS011;55996;49.546;7.400;2022-09-01T07:34:45;5.27;;;2.90;;
68947;SDS011;55996;49.546;7.400;2022-09-01T07:37:10;2.77;;;2.50;;
68947;SDS011;55996;49.546;7.400;2022-09-01T07:39:37;5.03;;;2.47;;
68947;SDS011;55996;49.546;7.400;2022-09-01T07:42:07;4.10;;;2.60;;
68947;SDS011;55996;49.546;7.400;2022-09-01T07:44:36;3.30;;;2.73;;
68947;SDS011;55996;49.546;7.400;2022-09-01T07:47:02;3.77;;;2.70;;
68947;SDS011;55996;49.546;7.400;2022-09-01T07:49:28;5.43;;;2.77;;
68947;SDS011;55996;49.546;7.400;2022-09-01T07:51:54;4.67;;;2.50;;
68947;SDS011;55996;49.546;7.400;2022-09-01T07:54:20;3.87;;;2.60;;
68947;SDS011;55996;49.546;7.400;2022-09-01T07:56:48;2.93;;;2.57;;
68947;SDS011;55996;49.546;7.400;2022-09-01T07:59:14;8.23;;;2.70;;
68947;SDS011;55996;49.546;7.400;2022-09-01T08:01:39;3.30;;;2.40;;
68947;SDS011;55996;49.546;7.400;2022-09-01T08:04:06;4.67;;;2.63;;
68947;SDS011;55996;49.546;7.400;2022-09-01T08:06:32;3.57;;;2.70;;
68947;SDS011;55996;49.546;7.400;2022-09-01T08:08:59;2.60;;;2.13;;
68947;SDS011;55996;49.546;7.400;2022-09-01T08:11:26;2.60;;;2.40;;
68947;SDS011;55996;49.546;7.400;2022-09-01T08:13:53;3.50;;;2.70;;
68947;SDS011;55996;49.546;7.400;2022-09-01T08:16:19;3.10;;;2.80;;
68947;SDS011;55996;49.546;7.400;2022-09-01T08:18:46;5.10;;;2.60;;
68947;SDS011;55996;49.546;7.400;2022-09-01T08:21:12;3.10;;;2.80;;
68947;SDS011;55996;49.546;7.400;2022-09-01T08:23:39;3.63;;;2.67;;
68947;SDS011;55996;49.546;7.400;2022-09-01T08:26:09;5.73;;;2.43;;
68947;SDS011;55996;49.546;7.400;2022-09-01T08:28:40;4.03;;;2.70;;
68947;SDS011;55996;49.546;7.400;2022-09-01T08:31:09;3.10;;;2.67;;
68947;SDS011;55996;49.546;7.400;2022-09-01T08:33:39;3.30;;;3.00;;
68947;SDS011;55996;49.546;7.400;2022-09-01T08:36:10;3.97;;;2.70;;
68947;SDS011;55996;49.546;7.400;2022-09-01T08:38:37;4.20;;;3.10;;
68947;SDS011;55996;49.546;7.400;2022-09-01T08:41:04;4.03;;;2.87;;
68947;SDS011;55996;49.546;7.400;2022-09-01T08:46:41;5.10;;;2.93;;
68947;SDS011;55996;49.546;7.400;2022-09-01T08:49:28;5.23;;;3.10;;
68947;SDS011;55996;49.546;7.400;2022-09-01T08:54:46;4.20;;;3.13;;
68947;SDS011;55996;49.546;7.400;2022-09-01T08:57:22;4.23;;;3.23;;
68947;SDS011;55996;49.546;7.400;2022-09-01T08:59:53;5.30;;;3.40;;
68947;SDS011;55996;49.546;7.400;2022-09-01T09:02:26;4.10;;;2.90;;
68947;SDS011;55996;49.546;7.400;2022-09-01T09:10:54;3.57;;;3.27;;
68947;SDS011;55996;49.546;7.400;2022-09-01T09:16:26;5.20;;;3.83;;
68947;SDS011;55996;49.546;7.400;2022-09-01T09:18:58;3.93;;;3.50;;
68947;SDS011;55996;49.546;7.400;2022-09-01T09:21:31;4.87;;;3.63;;
68947;SDS011;55996;49.546;7.400;2022-09-01T09:27:11;4.10;;;3.38;;
68947;SDS011;55996;49.546;7.400;2022-09-01T09:29:42;4.07;;;3.20;;
68947;SDS011;55996;49.546;7.400;2022-09-01T09:32:09;4.07;;;3.03;;
68947;SDS011;55996;49.546;7.400;2022-09-01T09:34:36;4.30;;;2.78;;
68947;SDS011;55996;49.546;7.400;2022-09-01T09:37:27;3.83;;;3.17;;
68947;SDS011;55996;49.546;7.400;2022-09-01T09:40:01;4.68;;;3.20;;
68947;SDS011;55996;49.546;7.400;2022-09-01T09:42:33;4.38;;;3.45;;
68947;SDS011;55996;49.546;7.400;2022-09-01T09:45:01;7.70;;;3.58;;
68947;SDS011;55996;49.546;7.400;2022-09-01T09:47:32;4.45;;;3.42;;
68947;SDS011;55996;49.546;7.400;2022-09-01T09:55:57;4.47;;;3.25;;
68947;SDS011;55996;49.546;7.400;2022-09-01T09:58:47;10.05;;;3.63;;
68947;SDS011;55996;49.546;7.400;2022-09-01T10:03:54;6.43;;;3.92;;
68947;SDS011;55996;49.546;7.400;2022-09-01T10:06:39;7.55;;;3.85;;
68947;SDS011;55996;49.546;7.400;2022-09-01T10:09:16;4.40;;;3.40;;
68947;SDS011;55996;49.546;7.400;2022-09-01T10:11:53;4.15;;;3.42;;
68947;SDS011;55996;49.546;7.400;2022-09-01T10:14:24;4.93;;;4.00;;
68947;SDS011;55996;49.546;7.400;2022-09-01T10:16:55;4.97;;;3.67;;
68947;SDS011;55996;49.546;7.400;2022-09-01T10:19:25;3.87;;;3.30;;
68947;SDS011;55996;49.546;7.400;2022-09-01T10:21:54;5.27;;;3.70;;
68947;SDS011;55996;49.546;7.400;2022-09-01T10:24:33;3.87;;;3.57;;
68947;SDS011;55996;49.546;7.400;2022-09-01T10:27:06;5.47;;;4.05;;
68947;SDS011;55996;49.546;7.400;2022-09-01T10:29:38;4.10;;;3.60;;
68947;SDS011;55996;49.546;7.400;2022-09-01T10:32:08;4.95;;;3.97;;
68947;SDS011;55996;49.546;7.400;2022-09-01T10:34:40;5.07;;;3.53;;
68947;SDS011;55996;49.546;7.400;2022-09-01T10:37:06;4.20;;;3.70;;
68947;SDS011;55996;49.546;7.400;2022-09-01T10:39:32;4.63;;;4.00;;
68947;SDS011;55996;49.546;7.400;2022-09-01T10:41:59;4.60;;;4.13;;
68947;SDS011;55996;49.546;7.400;2022-09-01T10:47:41;4.53;;;3.70;;
68947;SDS011;55996;49.546;7.400;2022-09-01T10:55:03;5.20;;;4.03;;
68947;SDS011;55996;49.546;7.400;2022-09-01T11:09:02;6.90;;;4.00;;
68947;SDS011;55996;49.546;7.400;2022-09-01T11:13:56;4.40;;;3.90;;
68947;SDS011;55996;49.546;7.400;2022-09-01T11:27:04;3.90;;;3.60;;
68947;SDS011;55996;49.546;7.400;2022-09-01T11:32:17;4.93;;;3.07;;
68947;SDS011;55996;49.546;7.400;2022-09-01T11:34:46;4.07;;;3.28;;
68947;SDS011;55996;49.546;7.400;2022-09-01T11:37:14;3.50;;;3.20;;
68947;SDS011;55996;49.546;7.400;2022-09-01T11:39:45;5.72;;;3.58;;
68947;SDS011;55996;49.546;7.400;2022-09-01T11:45:19;4.93;;;3.53;;
68947;SDS011;55996;49.546;7.400;2022-09-01T11:47:55;4.43;;;3.60;;
68947;SDS011;55996;49.546;7.400;2022-09-01T11:50:25;3.97;;;3.57;;
68947;SDS011;55996;49.546;7.400;2022-09-01T11:53:27;4.68;;;3.20;;
68947;SDS011;55996;49.546;7.400;2022-09-01T11:55:48;5.63;;;3.55;;
68947;SDS011;55996;49.546;7.400;2022-09-01T12:00:52;4.35;;;3.60;;
68947;SDS011;55996;49.546;7.400;2022-09-01T12:05:44;5.70;;;3.50;;
68947;SDS011;55996;49.546;7.400;2022-09-01T12:08:15;4.85;;;4.05;;
68947;SDS011;55996;49.546;7.400;2022-09-01T12:10:42;3.88;;;3.58;;
68947;SDS011;55996;49.546;7.400;2022-09-01T12:13:10;4.78;;;3.75;;
68947;SDS011;55996;49.546;7.400;2022-09-01T12:15:41;7.32;;;4.07;;
68947;SDS011;55996;49.546;7.400;2022-09-01T12:18:20;6.35;;;3.67;;
68947;SDS011;55996;49.546;7.400;2022-09-01T12:20:51;5.00;;;3.90;;
68947;SDS011;55996;49.546;7.400;2022-09-01T12:26:14;5.47;;;3.60;;
68947;SDS011;55996;49.546;7.400;2022-09-01T12:28:42;6.43;;;4.53;;
68947;SDS011;55996;49.546;7.400;2022-09-01T12:31:14;4.50;;;3.90;;
68947;SDS011;55996;49.546;7.400;2022-09-01T12:33:41;4.87;;;3.60;;
68947;SDS011;55996;49.546;7.400;2022-09-01T12:38:53;5.63;;;3.90;;
68947;SDS011;55996;49.546;7.400;2022-09-01T12:41:39;5.43;;;3.60;;
68947;SDS011;55996;49.546;7.400;2022-09-01T12:46:53;5.07;;;3.75;;
68947;SDS011;55996;49.546;7.400;2022-09-01T12:49:22;4.87;;;3.53;;
68947;SDS011;55996;49.546;7.400;2022-09-01T12:52:17;4.60;;;3.78;;
68947;SDS011;55996;49.546;7.400;2022-09-01T12:54:47;5.72;;;4.00;;
68947;SDS011;55996;49.546;7.400;2022-09-01T13:07:45;6.20;;;3.80;;
68947;SDS011;55996;49.546;7.400;2022-09-01T13:10:11;5.57;;;3.75;;
68947;SDS011;55996;49.546;7.400;2022-09-01T13:12:43;3.67;;;3.38;;
68947;SDS011;55996;49.546;7.400;2022-09-01T13:15:09;4.43;;;3.83;;
68947;SDS011;55996;49.546;7.400;2022-09-01T13:17:35;4.20;;;3.50;;
68947;SDS011;55996;49.546;7.400;2022-09-01T13:20:02;4.30;;;3.33;;
68947;SDS011;55996;49.546;7.400;2022-09-01T13:22:31;3.85;;;3.55;;
68947;SDS011;55996;49.546;7.400;2022-09-01T13:24:57;4.03;;;3.30;;
68947;SDS011;55996;49.546;7.400;2022-09-01T13:27:22;5.03;;;3.65;;
68947;SDS011;55996;49.546;7.400;2022-09-01T13:29:48;5.47;;;3.58;;
68947;SDS011;55996;49.546;7.400;2022-09-01T13:32:14;4.70;;;3.63;;
68947;SDS011;55996;49.546;7.400;2022-09-01T13:34:41;3.80;;;3.50;;
68947;SDS011;55996;49.546;7.400;2022-09-01T13:37:07;5.72;;;3.90;;
68947;SDS011;55996;49.546;7.400;2022-09-01T13:39:32;4.82;;;3.30;;
68947;SDS011;55996;49.546;7.400;2022-09-01T13:41:58;6.38;;;3.55;;
68947;SDS011;55996;49.546;7.400;2022-09-01T13:44:23;5.13;;;3.60;;
68947;SDS011;55996;49.546;7.400;2022-09-01T13:46:49;3.63;;;3.33;;
68947;SDS011;55996;49.546;7.400;2022-09-01T13:49:14;5.45;;;3.40;;
68947;SDS011;55996;49.546;7.400;2022-09-01T13:51:40;3.92;;;3.53;;
68947;SDS011;55996;49.546;7.400;2022-09-01T13:54:05;3.65;;;3.35;;
68947;SDS011;55996;49.546;7.400;2022-09-01T13:56:31;5.05;;;3.22;;
68947;SDS011;55996;49.546;7.400;2022-09-01T13:58:56;3.45;;;3.15;;
68947;SDS011;55996;49.546;7.400;2022-09-01T14:01:22;3.53;;;2.90;;
68947;SDS011;55996;49.546;7.400;2022-09-01T14:03:48;3.58;;;3.15;;
68947;SDS011;55996;49.546;7.400;2022-09-01T14:06:14;5.07;;;3.72;;
68947;SDS011;55996;49.546;7.400;2022-09-01T14:08:40;3.53;;;3.03;;
68947;SDS011;55996;49.546;7.400;2022-09-01T14:11:05;4.78;;;3.30;;
68947;SDS011;55996;49.546;7.400;2022-09-01T14:13:31;4.05;;;3.47;;
68947;SDS011;55996;49.546;7.400;2022-09-01T14:15:58;3.35;;;3.05;;
68947;SDS011;55996;49.546;7.400;2022-09-01T14:18:24;4.65;;;3.30;;
68947;SDS011;55996;49.546;7.400;2022-09-01T14:20:57;3.50;;;3.00;;
68947;SDS011;55996;49.546;7.400;2022-09-01T14:23:25;5.57;;;3.17;;
68947;SDS011;55996;49.546;7.400;2022-09-01T14:25:50;4.00;;;3.60;;
68947;SDS011;55996;49.546;7.400;2022-09-01T14:28:17;4.97;;;3.00;;
68947;SDS011;55996;49.546;7.400;2022-09-01T14:30:43;4.93;;;3.45;;
68947;SDS011;55996;49.546;7.400;2022-09-01T14:33:09;4.05;;;3.13;;
68947;SDS011;55996;49.546;7.400;2022-09-01T14:35:36;3.75;;;3.00;;
68947;SDS011;55996;49.546;7.400;2022-09-01T14:38:07;3.33;;;3.03;;
68947;SDS011;55996;49.546;7.400;2022-09-01T14:40:34;4.30;;;3.55;;
68947;SDS011;55996;49.546;7.400;2022-09-01T14:43:02;5.75;;;3.00;;
68947;SDS011;55996;49.546;7.400;2022-09-01T14:45:29;4.50;;;3.45;;
68947;SDS011;55996;49.546;7.400;2022-09-01T14:47:56;6.30;;;3.22;;
68947;SDS011;55996;49.546;7.400;2022-09-01T14:50:25;3.20;;;3.00;;
68947;SDS011;55996;49.546;7.400;2022-09-01T14:52:54;3.88;;;3.20;;
68947;SDS011;55996;49.546;7.400;2022-09-01T14:55:21;4.50;;;3.10;;
68947;SDS011;55996;49.546;7.400;2022-09-01T14:57:48;4.53;;;3.03;;
68947;SDS011;55996;49.546;7.400;2022-09-01T15:00:14;3.42;;;3.00;;
68947;SDS011;55996;49.546;7.400;2022-09-01T15:02:42;3.75;;;3.33;;
68947;SDS011;55996;49.546;7.400;2022-09-01T15:05:09;5.85;;;2.80;;
68947;SDS011;55996;49.546;7.400;2022-09-01T15:07:36;4.45;;;3.10;;
68947;SDS011;55996;49.546;7.400;2022-09-01T15:10:02;3.55;;;3.20;;
68947;SDS011;55996;49.546;7.400;2022-09-01T15:12:30;4.28;;;3.00;;
68947;SDS011;55996;49.546;7.400;2022-09-01T15:14:59;3.60;;;2.88;;
68947;SDS011;55996;49.546;7.400;2022-09-01T15:17:26;3.42;;;3.13;;
68947;SDS011;55996;49.546;7.400;2022-09-01T15:19:52;3.30;;;3.00;;
68947;SDS011;55996;49.546;7.400;2022-09-01T15:22:18;3.17;;;2.90;;
68947;SDS011;55996;49.546;7.400;2022-09-01T15:24:44;3.17;;;2.88;;
68947;SDS011;55996;49.546;7.400;2022-09-01T15:27:10;3.33;;;3.00;;
68947;SDS011;55996;49.546;7.400;2022-09-01T15:29:36;3.78;;;3.20;;
68947;SDS011;55996;49.546;7.400;2022-09-01T15:32:10;3.20;;;2.88;;
68947;SDS011;55996;49.546;7.400;2022-09-01T15:34:37;5.68;;;3.10;;
68947;SDS011;55996;49.546;7.400;2022-09-01T15:37:03;4.57;;;3.15;;
68947;SDS011;55996;49.546;7.400;2022-09-01T15:39:29;3.15;;;2.85;;
68947;SDS011;55996;49.546;7.400;2022-09-01T15:41:54;4.55;;;2.97;;
68947;SDS011;55996;49.546;7.400;2022-09-01T15:44:20;3.25;;;3.00;;
68947;SDS011;55996;49.546;7.400;2022-09-01T15:46:46;3.88;;;2.78;;
68947;SDS011;55996;49.546;7.400;2022-09-01T15:49:12;3.28;;;3.05;;
68947;SDS011;55996;49.546;7.400;2022-09-01T15:51:39;4.00;;;2.78;;
68947;SDS011;55996;49.546;7.400;2022-09-01T15:54:07;3.30;;;2.83;;
68947;SDS011;55996;49.546;7.400;2022-09-01T15:56:34;2.70;;;2.50;;
68947;SDS011;55996;49.546;7.400;2022-09-01T15:59:00;3.38;;;2.78;;
68947;SDS011;55996;49.546;7.400;2022-09-01T16:01:28;2.70;;;2.50;;
68947;SDS011;55996;49.546;7.400;2022-09-01T16:03:56;3.28;;;2.72;;
68947;SDS011;55996;49.546;7.400;2022-09-01T16:06:21;3.30;;;3.00;;
68947;SDS011;55996;49.546;7.400;2022-09-01T16:08:48;3.77;;;2.93;;
68947;SDS011;55996;49.546;7.400;2022-09-01T16:11:14;3.30;;;3.00;;
68947;SDS011;55996;49.546;7.400;2022-09-01T16:13:41;4.50;;;2.87;;
68947;SDS011;55996;49.546;7.400;2022-09-01T16:24:17;5.63;;;2.77;;
68947;SDS011;55996;49.546;7.400;2022-09-01T16:26:43;3.77;;;3.03;;
68947;SDS011;55996;49.546;7.400;2022-09-01T16:29:36;3.60;;;3.30;;
68947;SDS011;55996;49.546;7.400;2022-09-01T16:32:03;3.40;;;3.10;;
68947;SDS011;55996;49.546;7.400;2022-09-01T16:34:29;6.60;;;3.20;;
68947;SDS011;55996;49.546;7.400;2022-09-01T16:39:48;3.27;;;2.80;;
68947;SDS011;55996;49.546;7.400;2022-09-01T16:50:14;3.10;;;2.90;;